sensor_id;sensor_type;location;lat;lon;timestamp;P1;durP1;ratioP1;P2;durP2;ratioP2
23642;SDS011;11998;55.788;37.572;2022-08-26T00:00:37;33.83;;;22.65;;
23642;SDS011;11998;55.788;37.572;2022-08-26T00:01:38;33.85;;;22.08;;
23642;SDS011;11998;55.788;37.572;2022-08-26T00:02:40;40.63;;;22.92;;
23642;SDS011;11998;55.788;37.572;2022-08-26T00:03:41;32.38;;;23.35;;
23642;SDS011;11998;55.788;37.572;2022-08-26T00:04:42;39.30;;;23.75;;
23642;SDS011;11998;55.788;37.572;2022-08-26T00:05:43;41.10;;;24.42;;
23642;SDS011;11998;55.788;37.572;2022-08-26T00:06:44;37.85;;;23.52;;
23642;SDS011;11998;55.788;37.572;2022-08-26T00:07:46;39.42;;;24.85;;
23642;SDS011;11998;55.788;37.572;2022-08-26T00:08:46;36.15;;;24.35;;
23642;SDS011;11998;55.788;37.572;2022-08-26T00:09:47;36.63;;;24.73;;
23642;SDS011;11998;55.788;37.572;2022-08-26T00:10:48;42.30;;;24.80;;
23642;SDS011;11998;55.788;37.572;2022-08-26T00:11:48;43.20;;;25.60;;
23642;SDS011;11998;55.788;37.572;2022-08-26T00:12:49;38.47;;;24.65;;
23642;SDS011;11998;55.788;37.572;2022-08-26T00:13:50;36.38;;;24.40;;
23642;SDS011;11998;55.788;37.572;2022-08-26T00:14:51;42.63;;;23.95;;
23642;SDS011;11998;55.788;37.572;2022-08-26T00:15:52;39.83;;;25.15;;
23642;SDS011;11998;55.788;37.572;2022-08-26T00:16:53;34.67;;;24.63;;
23642;SDS011;11998;55.788;37.572;2022-08-26T00:17:53;39.25;;;24.48;;
23642;SDS011;11998;55.788;37.572;2022-08-26T00:18:55;38.75;;;25.17;;
23642;SDS011;11998;55.788;37.572;2022-08-26T00:19:55;40.90;;;24.98;;
23642;SDS011;11998;55.788;37.572;2022-08-26T00:20:56;45.65;;;25.50;;
23642;SDS011;11998;55.788;37.572;2022-08-26T00:21:57;38.17;;;24.52;;
23642;SDS011;11998;55.788;37.572;2022-08-26T00:22:57;42.00;;;25.88;;
23642;SDS011;11998;55.788;37.572;2022-08-26T00:23:58;37.40;;;24.00;;
23642;SDS011;11998;55.788;37.572;2022-08-26T00:24:58;41.20;;;24.73;;
23642;SDS011;11998;55.788;37.572;2022-08-26T00:26:01;34.15;;;23.83;;
23642;SDS011;11998;55.788;37.572;2022-08-26T00:27:04;40.90;;;25.85;;
23642;SDS011;11998;55.788;37.572;2022-08-26T00:28:05;32.85;;;24.63;;
23642;SDS011;11998;55.788;37.572;2022-08-26T00:29:05;47.67;;;25.73;;
23642;SDS011;11998;55.788;37.572;2022-08-26T00:30:07;44.67;;;24.13;;
23642;SDS011;11998;55.788;37.572;2022-08-26T00:31:11;33.53;;;23.98;;
23642;SDS011;11998;55.788;37.572;2022-08-26T00:32:12;40.58;;;25.27;;
23642;SDS011;11998;55.788;37.572;2022-08-26T00:33:13;43.45;;;25.63;;
23642;SDS011;11998;55.788;37.572;2022-08-26T00:34:14;40.17;;;23.88;;
23642;SDS011;11998;55.788;37.572;2022-08-26T00:35:15;35.17;;;24.00;;
23642;SDS011;11998;55.788;37.572;2022-08-26T00:36:16;35.53;;;23.77;;
23642;SDS011;11998;55.788;37.572;2022-08-26T00:37:17;32.15;;;23.65;;
23642;SDS011;11998;55.788;37.572;2022-08-26T00:38:17;36.75;;;24.27;;
23642;SDS011;11998;55.788;37.572;2022-08-26T00:39:18;38.97;;;25.45;;
23642;SDS011;11998;55.788;37.572;2022-08-26T00:40:22;35.38;;;23.63;;
23642;SDS011;11998;55.788;37.572;2022-08-26T00:41:27;41.90;;;24.48;;
23642;SDS011;11998;55.788;37.572;2022-08-26T00:42:28;37.95;;;24.80;;
23642;SDS011;11998;55.788;37.572;2022-08-26T00:43:30;40.55;;;24.67;;
23642;SDS011;11998;55.788;37.572;2022-08-26T00:44:32;38.97;;;23.67;;
23642;SDS011;11998;55.788;37.572;2022-08-26T00:45:39;35.30;;;24.55;;
23642;SDS011;11998;55.788;37.572;2022-08-26T00:46:45;45.05;;;25.17;;
23642;SDS011;11998;55.788;37.572;2022-08-26T00:47:53;39.63;;;24.27;;
23642;SDS011;11998;55.788;37.572;2022-08-26T00:49:08;34.42;;;23.77;;
23642;SDS011;11998;55.788;37.572;2022-08-26T00:50:16;40.83;;;24.63;;
23642;SDS011;11998;55.788;37.572;2022-08-26T00:51:22;45.33;;;24.17;;
23642;SDS011;11998;55.788;37.572;2022-08-26T00:52:24;37.85;;;23.58;;
23642;SDS011;11998;55.788;37.572;2022-08-26T00:53:27;34.85;;;23.92;;
23642;SDS011;11998;55.788;37.572;2022-08-26T00:54:32;44.80;;;25.35;;
23642;SDS011;11998;55.788;37.572;2022-08-26T00:55:35;32.67;;;24.23;;
23642;SDS011;11998;55.788;37.572;2022-08-26T00:57:59;37.95;;;25.25;;
23642;SDS011;11998;55.788;37.572;2022-08-26T00:59:01;37.65;;;24.58;;
23642;SDS011;11998;55.788;37.572;2022-08-26T01:00:07;34.17;;;25.27;;
23642;SDS011;11998;55.788;37.572;2022-08-26T01:01:11;38.38;;;24.27;;
23642;SDS011;11998;55.788;37.572;2022-08-26T01:02:11;38.20;;;24.90;;
23642;SDS011;11998;55.788;37.572;2022-08-26T01:03:12;33.60;;;24.83;;
23642;SDS011;11998;55.788;37.572;2022-08-26T01:04:17;34.72;;;24.13;;
23642;SDS011;11998;55.788;37.572;2022-08-26T01:05:20;33.45;;;24.60;;
23642;SDS011;11998;55.788;37.572;2022-08-26T01:06:21;41.22;;;24.00;;
23642;SDS011;11998;55.788;37.572;2022-08-26T01:07:24;40.80;;;24.63;;
23642;SDS011;11998;55.788;37.572;2022-08-26T01:08:26;40.92;;;25.05;;
23642;SDS011;11998;55.788;37.572;2022-08-26T01:09:27;32.90;;;23.92;;
23642;SDS011;11998;55.788;37.572;2022-08-26T01:10:28;36.22;;;23.98;;
23642;SDS011;11998;55.788;37.572;2022-08-26T01:11:30;37.97;;;24.35;;
23642;SDS011;11998;55.788;37.572;2022-08-26T01:12:32;37.17;;;24.30;;
23642;SDS011;11998;55.788;37.572;2022-08-26T01:13:38;34.88;;;23.75;;
23642;SDS011;11998;55.788;37.572;2022-08-26T01:14:39;40.08;;;23.17;;
23642;SDS011;11998;55.788;37.572;2022-08-26T01:15:44;43.42;;;24.17;;
23642;SDS011;11998;55.788;37.572;2022-08-26T01:16:47;36.40;;;23.25;;
23642;SDS011;11998;55.788;37.572;2022-08-26T01:17:49;35.38;;;24.08;;
23642;SDS011;11998;55.788;37.572;2022-08-26T01:18:50;38.83;;;23.95;;
23642;SDS011;11998;55.788;37.572;2022-08-26T01:20:03;36.90;;;23.10;;
23642;SDS011;11998;55.788;37.572;2022-08-26T01:22:56;39.53;;;23.42;;
23642;SDS011;11998;55.788;37.572;2022-08-26T01:24:00;40.72;;;24.10;;
23642;SDS011;11998;55.788;37.572;2022-08-26T01:25:02;38.58;;;23.55;;
23642;SDS011;11998;55.788;37.572;2022-08-26T01:26:05;38.22;;;23.30;;
23642;SDS011;11998;55.788;37.572;2022-08-26T01:27:09;42.90;;;23.88;;
23642;SDS011;11998;55.788;37.572;2022-08-26T01:28:14;39.55;;;23.42;;
23642;SDS011;11998;55.788;37.572;2022-08-26T01:29:20;34.83;;;23.33;;
23642;SDS011;11998;55.788;37.572;2022-08-26T01:30:22;40.53;;;22.85;;
23642;SDS011;11998;55.788;37.572;2022-08-26T01:31:26;35.45;;;22.75;;
23642;SDS011;11998;55.788;37.572;2022-08-26T01:32:31;31.88;;;22.08;;
23642;SDS011;11998;55.788;37.572;2022-08-26T01:33:38;33.95;;;22.52;;
23642;SDS011;11998;55.788;37.572;2022-08-26T01:34:45;35.17;;;22.38;;
23642;SDS011;11998;55.788;37.572;2022-08-26T01:35:47;38.03;;;24.42;;
23642;SDS011;11998;55.788;37.572;2022-08-26T01:36:48;36.20;;;22.73;;
23642;SDS011;11998;55.788;37.572;2022-08-26T01:37:52;31.70;;;22.38;;
23642;SDS011;11998;55.788;37.572;2022-08-26T01:38:55;38.72;;;23.17;;
23642;SDS011;11998;55.788;37.572;2022-08-26T01:39:56;38.80;;;24.05;;
23642;SDS011;11998;55.788;37.572;2022-08-26T01:40:57;34.63;;;23.55;;
23642;SDS011;11998;55.788;37.572;2022-08-26T01:41:59;38.75;;;24.45;;
23642;SDS011;11998;55.788;37.572;2022-08-26T01:43:02;36.15;;;24.73;;
23642;SDS011;11998;55.788;37.572;2022-08-26T01:44:05;43.15;;;23.45;;
23642;SDS011;11998;55.788;37.572;2022-08-26T01:45:12;36.95;;;24.10;;
23642;SDS011;11998;55.788;37.572;2022-08-26T01:46:17;41.28;;;24.88;;
23642;SDS011;11998;55.788;37.572;2022-08-26T01:47:22;43.63;;;24.33;;
23642;SDS011;11998;55.788;37.572;2022-08-26T01:48:26;35.15;;;24.92;;
23642;SDS011;11998;55.788;37.572;2022-08-26T01:49:29;44.58;;;24.52;;
23642;SDS011;11998;55.788;37.572;2022-08-26T01:50:31;46.50;;;26.38;;
23642;SDS011;11998;55.788;37.572;2022-08-26T01:51:34;42.72;;;25.88;;
23642;SDS011;11998;55.788;37.572;2022-08-26T01:52:38;43.47;;;24.88;;
23642;SDS011;11998;55.788;37.572;2022-08-26T01:53:41;40.85;;;25.42;;
23642;SDS011;11998;55.788;37.572;2022-08-26T01:54:42;38.03;;;25.20;;
23642;SDS011;11998;55.788;37.572;2022-08-26T01:55:45;46.60;;;26.40;;
23642;SDS011;11998;55.788;37.572;2022-08-26T01:56:50;39.53;;;25.50;;
23642;SDS011;11998;55.788;37.572;2022-08-26T01:57:53;41.70;;;24.77;;
23642;SDS011;11998;55.788;37.572;2022-08-26T01:58:56;46.13;;;26.50;;
23642;SDS011;11998;55.788;37.572;2022-08-26T02:00:00;38.22;;;24.83;;
23642;SDS011;11998;55.788;37.572;2022-08-26T02:01:04;44.28;;;24.95;;
23642;SDS011;11998;55.788;37.572;2022-08-26T02:02:06;46.97;;;26.70;;
23642;SDS011;11998;55.788;37.572;2022-08-26T02:03:06;41.75;;;25.35;;
23642;SDS011;11998;55.788;37.572;2022-08-26T02:04:19;41.83;;;25.25;;
23642;SDS011;11998;55.788;37.572;2022-08-26T02:05:26;43.38;;;25.90;;
23642;SDS011;11998;55.788;37.572;2022-08-26T02:06:27;40.85;;;25.67;;
23642;SDS011;11998;55.788;37.572;2022-08-26T02:07:27;41.90;;;26.02;;
23642;SDS011;11998;55.788;37.572;2022-08-26T02:08:34;40.97;;;24.92;;
23642;SDS011;11998;55.788;37.572;2022-08-26T02:09:47;39.35;;;25.08;;
23642;SDS011;11998;55.788;37.572;2022-08-26T02:10:47;34.38;;;24.85;;
23642;SDS011;11998;55.788;37.572;2022-08-26T02:11:48;39.88;;;26.60;;
23642;SDS011;11998;55.788;37.572;2022-08-26T02:12:49;42.40;;;25.67;;
23642;SDS011;11998;55.788;37.572;2022-08-26T02:13:51;37.28;;;25.23;;
23642;SDS011;11998;55.788;37.572;2022-08-26T02:14:55;39.10;;;25.15;;
23642;SDS011;11998;55.788;37.572;2022-08-26T02:15:59;40.83;;;23.95;;
23642;SDS011;11998;55.788;37.572;2022-08-26T02:17:03;40.97;;;25.63;;
23642;SDS011;11998;55.788;37.572;2022-08-26T02:18:06;44.83;;;24.90;;
23642;SDS011;11998;55.788;37.572;2022-08-26T02:19:08;46.17;;;24.35;;
23642;SDS011;11998;55.788;37.572;2022-08-26T02:20:13;42.45;;;26.63;;
23642;SDS011;11998;55.788;37.572;2022-08-26T02:21:16;43.70;;;25.00;;
23642;SDS011;11998;55.788;37.572;2022-08-26T02:22:19;38.97;;;25.98;;
23642;SDS011;11998;55.788;37.572;2022-08-26T02:23:21;34.97;;;24.33;;
23642;SDS011;11998;55.788;37.572;2022-08-26T02:24:23;43.83;;;25.92;;
23642;SDS011;11998;55.788;37.572;2022-08-26T02:25:29;45.83;;;25.30;;
23642;SDS011;11998;55.788;37.572;2022-08-26T02:26:33;37.58;;;25.02;;
23642;SDS011;11998;55.788;37.572;2022-08-26T02:27:33;35.45;;;24.25;;
23642;SDS011;11998;55.788;37.572;2022-08-26T02:28:36;44.28;;;25.38;;
23642;SDS011;11998;55.788;37.572;2022-08-26T02:29:46;42.67;;;24.83;;
23642;SDS011;11998;55.788;37.572;2022-08-26T02:30:50;37.50;;;25.55;;
23642;SDS011;11998;55.788;37.572;2022-08-26T02:31:51;38.10;;;24.33;;
23642;SDS011;11998;55.788;37.572;2022-08-26T02:32:55;35.67;;;21.67;;
23642;SDS011;11998;55.788;37.572;2022-08-26T02:34:16;36.55;;;23.45;;
23642;SDS011;11998;55.788;37.572;2022-08-26T02:35:22;36.85;;;23.02;;
23642;SDS011;11998;55.788;37.572;2022-08-26T02:36:23;41.05;;;23.08;;
23642;SDS011;11998;55.788;37.572;2022-08-26T02:37:27;40.20;;;20.00;;
23642;SDS011;11998;55.788;37.572;2022-08-26T02:38:29;44.58;;;22.52;;
23642;SDS011;11998;55.788;37.572;2022-08-26T02:39:30;37.60;;;20.20;;
23642;SDS011;11998;55.788;37.572;2022-08-26T02:40:33;36.70;;;20.60;;
23642;SDS011;11998;55.788;37.572;2022-08-26T02:41:35;29.15;;;19.95;;
23642;SDS011;11998;55.788;37.572;2022-08-26T02:42:37;38.78;;;20.52;;
23642;SDS011;11998;55.788;37.572;2022-08-26T02:43:37;35.22;;;22.00;;
23642;SDS011;11998;55.788;37.572;2022-08-26T02:44:38;36.05;;;21.00;;
23642;SDS011;11998;55.788;37.572;2022-08-26T02:45:39;38.75;;;21.48;;
23642;SDS011;11998;55.788;37.572;2022-08-26T02:46:40;36.50;;;21.02;;
23642;SDS011;11998;55.788;37.572;2022-08-26T02:47:41;42.30;;;21.65;;
23642;SDS011;11998;55.788;37.572;2022-08-26T02:48:41;43.35;;;22.48;;
23642;SDS011;11998;55.788;37.572;2022-08-26T02:49:42;42.97;;;21.95;;
23642;SDS011;11998;55.788;37.572;2022-08-26T02:50:43;38.15;;;21.60;;
23642;SDS011;11998;55.788;37.572;2022-08-26T02:51:44;34.38;;;20.73;;
23642;SDS011;11998;55.788;37.572;2022-08-26T02:52:45;39.17;;;22.35;;
23642;SDS011;11998;55.788;37.572;2022-08-26T02:53:47;45.17;;;22.33;;
23642;SDS011;11998;55.788;37.572;2022-08-26T02:54:48;37.13;;;21.15;;
23642;SDS011;11998;55.788;37.572;2022-08-26T02:55:48;40.97;;;23.42;;
23642;SDS011;11998;55.788;37.572;2022-08-26T02:56:49;51.35;;;27.92;;
23642;SDS011;11998;55.788;37.572;2022-08-26T02:57:50;44.85;;;27.50;;
23642;SDS011;11998;55.788;37.572;2022-08-26T02:58:51;51.22;;;28.38;;
23642;SDS011;11998;55.788;37.572;2022-08-26T02:59:52;52.13;;;28.00;;
23642;SDS011;11998;55.788;37.572;2022-08-26T03:00:52;48.17;;;27.70;;
23642;SDS011;11998;55.788;37.572;2022-08-26T03:01:53;41.53;;;25.23;;
23642;SDS011;11998;55.788;37.572;2022-08-26T03:02:54;60.20;;;32.50;;
23642;SDS011;11998;55.788;37.572;2022-08-26T03:03:55;63.10;;;34.88;;
23642;SDS011;11998;55.788;37.572;2022-08-26T03:04:56;74.43;;;39.42;;
23642;SDS011;11998;55.788;37.572;2022-08-26T03:05:57;69.72;;;35.97;;
23642;SDS011;11998;55.788;37.572;2022-08-26T03:06:57;67.63;;;33.53;;
23642;SDS011;11998;55.788;37.572;2022-08-26T03:07:59;51.88;;;26.25;;
23642;SDS011;11998;55.788;37.572;2022-08-26T03:09:00;43.22;;;25.05;;
23642;SDS011;11998;55.788;37.572;2022-08-26T03:10:00;51.60;;;24.23;;
23642;SDS011;11998;55.788;37.572;2022-08-26T03:11:01;40.53;;;23.27;;
23642;SDS011;11998;55.788;37.572;2022-08-26T03:12:01;40.67;;;23.33;;
23642;SDS011;11998;55.788;37.572;2022-08-26T03:13:02;38.35;;;26.55;;
23642;SDS011;11998;55.788;37.572;2022-08-26T03:14:03;42.03;;;26.67;;
23642;SDS011;11998;55.788;37.572;2022-08-26T03:15:04;45.17;;;27.83;;
23642;SDS011;11998;55.788;37.572;2022-08-26T03:16:05;44.13;;;26.70;;
23642;SDS011;11998;55.788;37.572;2022-08-26T03:17:07;42.45;;;25.75;;
23642;SDS011;11998;55.788;37.572;2022-08-26T03:18:07;46.40;;;27.58;;
23642;SDS011;11998;55.788;37.572;2022-08-26T03:19:08;46.47;;;29.15;;
23642;SDS011;11998;55.788;37.572;2022-08-26T03:20:09;40.13;;;28.58;;
23642;SDS011;11998;55.788;37.572;2022-08-26T03:21:11;45.25;;;29.20;;
23642;SDS011;11998;55.788;37.572;2022-08-26T03:22:15;42.63;;;28.40;;
23642;SDS011;11998;55.788;37.572;2022-08-26T03:23:15;46.58;;;29.85;;
23642;SDS011;11998;55.788;37.572;2022-08-26T03:24:16;46.45;;;29.70;;
23642;SDS011;11998;55.788;37.572;2022-08-26T03:25:16;44.33;;;31.20;;
23642;SDS011;11998;55.788;37.572;2022-08-26T03:26:18;47.17;;;30.30;;
23642;SDS011;11998;55.788;37.572;2022-08-26T03:27:19;47.78;;;31.23;;
23642;SDS011;11998;55.788;37.572;2022-08-26T03:28:19;51.53;;;31.27;;
23642;SDS011;11998;55.788;37.572;2022-08-26T03:29:20;53.50;;;31.10;;
23642;SDS011;11998;55.788;37.572;2022-08-26T03:30:40;49.53;;;32.72;;
23642;SDS011;11998;55.788;37.572;2022-08-26T03:31:41;48.10;;;32.50;;
23642;SDS011;11998;55.788;37.572;2022-08-26T03:32:41;45.50;;;31.27;;
23642;SDS011;11998;55.788;37.572;2022-08-26T03:33:42;51.40;;;33.83;;
23642;SDS011;11998;55.788;37.572;2022-08-26T03:34:42;48.15;;;31.33;;
23642;SDS011;11998;55.788;37.572;2022-08-26T03:35:43;50.33;;;33.55;;
23642;SDS011;11998;55.788;37.572;2022-08-26T03:36:46;50.35;;;32.30;;
23642;SDS011;11998;55.788;37.572;2022-08-26T03:37:47;55.78;;;33.78;;
23642;SDS011;11998;55.788;37.572;2022-08-26T03:38:48;53.65;;;33.97;;
23642;SDS011;11998;55.788;37.572;2022-08-26T03:39:48;59.85;;;35.42;;
23642;SDS011;11998;55.788;37.572;2022-08-26T03:40:49;52.35;;;32.95;;
23642;SDS011;11998;55.788;37.572;2022-08-26T03:41:50;58.10;;;33.92;;
23642;SDS011;11998;55.788;37.572;2022-08-26T03:42:51;59.70;;;35.35;;
23642;SDS011;11998;55.788;37.572;2022-08-26T03:43:52;54.20;;;35.38;;
23642;SDS011;11998;55.788;37.572;2022-08-26T03:44:52;55.53;;;34.08;;
23642;SDS011;11998;55.788;37.572;2022-08-26T03:45:53;55.95;;;34.15;;
23642;SDS011;11998;55.788;37.572;2022-08-26T03:46:53;49.78;;;33.70;;
23642;SDS011;11998;55.788;37.572;2022-08-26T03:47:54;51.20;;;34.08;;
23642;SDS011;11998;55.788;37.572;2022-08-26T03:48:55;55.50;;;33.17;;
23642;SDS011;11998;55.788;37.572;2022-08-26T03:49:56;54.65;;;33.45;;
23642;SDS011;11998;55.788;37.572;2022-08-26T03:50:58;50.05;;;34.40;;
23642;SDS011;11998;55.788;37.572;2022-08-26T03:51:59;51.22;;;34.63;;
23642;SDS011;11998;55.788;37.572;2022-08-26T03:53:00;54.28;;;34.70;;
23642;SDS011;11998;55.788;37.572;2022-08-26T03:54:01;51.05;;;35.40;;
23642;SDS011;11998;55.788;37.572;2022-08-26T03:55:03;49.53;;;34.53;;
23642;SDS011;11998;55.788;37.572;2022-08-26T03:56:04;53.20;;;36.03;;
23642;SDS011;11998;55.788;37.572;2022-08-26T03:57:05;45.35;;;34.47;;
23642;SDS011;11998;55.788;37.572;2022-08-26T03:58:07;56.33;;;37.08;;
23642;SDS011;11998;55.788;37.572;2022-08-26T03:59:08;54.63;;;37.58;;
23642;SDS011;11998;55.788;37.572;2022-08-26T04:00:10;52.90;;;37.40;;
23642;SDS011;11998;55.788;37.572;2022-08-26T04:01:15;46.30;;;36.08;;
23642;SDS011;11998;55.788;37.572;2022-08-26T04:02:16;66.53;;;37.75;;
23642;SDS011;11998;55.788;37.572;2022-08-26T04:03:17;57.42;;;37.67;;
23642;SDS011;11998;55.788;37.572;2022-08-26T04:04:37;57.45;;;38.75;;
23642;SDS011;11998;55.788;37.572;2022-08-26T04:05:38;63.28;;;37.70;;
23642;SDS011;11998;55.788;37.572;2022-08-26T04:06:40;60.92;;;37.67;;
23642;SDS011;11998;55.788;37.572;2022-08-26T04:07:42;50.72;;;36.58;;
23642;SDS011;11998;55.788;37.572;2022-08-26T04:08:43;55.97;;;37.50;;
23642;SDS011;11998;55.788;37.572;2022-08-26T04:09:44;59.17;;;38.97;;
23642;SDS011;11998;55.788;37.572;2022-08-26T04:10:45;62.10;;;39.63;;
23642;SDS011;11998;55.788;37.572;2022-08-26T04:11:45;57.42;;;39.92;;
23642;SDS011;11998;55.788;37.572;2022-08-26T04:12:47;61.25;;;38.95;;
23642;SDS011;11998;55.788;37.572;2022-08-26T04:13:48;65.85;;;39.92;;
23642;SDS011;11998;55.788;37.572;2022-08-26T04:14:48;57.45;;;40.05;;
23642;SDS011;11998;55.788;37.572;2022-08-26T04:15:49;60.33;;;38.90;;
23642;SDS011;11998;55.788;37.572;2022-08-26T04:16:50;51.28;;;39.95;;
23642;SDS011;11998;55.788;37.572;2022-08-26T04:17:53;55.63;;;37.60;;
23642;SDS011;11998;55.788;37.572;2022-08-26T04:18:54;57.85;;;38.78;;
23642;SDS011;11998;55.788;37.572;2022-08-26T04:19:56;60.78;;;40.90;;
23642;SDS011;11998;55.788;37.572;2022-08-26T04:20:56;55.60;;;38.80;;
23642;SDS011;11998;55.788;37.572;2022-08-26T04:21:57;61.15;;;39.10;;
23642;SDS011;11998;55.788;37.572;2022-08-26T04:22:57;61.60;;;37.17;;
23642;SDS011;11998;55.788;37.572;2022-08-26T04:23:58;62.33;;;37.83;;
23642;SDS011;11998;55.788;37.572;2022-08-26T04:24:59;55.78;;;38.75;;
23642;SDS011;11998;55.788;37.572;2022-08-26T04:25:59;52.83;;;38.45;;
23642;SDS011;11998;55.788;37.572;2022-08-26T04:27:00;51.90;;;38.97;;
23642;SDS011;11998;55.788;37.572;2022-08-26T04:28:02;55.17;;;39.72;;
23642;SDS011;11998;55.788;37.572;2022-08-26T04:29:04;58.22;;;38.30;;
23642;SDS011;11998;55.788;37.572;2022-08-26T04:30:31;56.97;;;39.20;;
23642;SDS011;11998;55.788;37.572;2022-08-26T04:31:32;60.50;;;39.13;;
23642;SDS011;11998;55.788;37.572;2022-08-26T04:32:34;62.85;;;39.45;;
23642;SDS011;11998;55.788;37.572;2022-08-26T04:33:35;61.97;;;40.35;;
23642;SDS011;11998;55.788;37.572;2022-08-26T04:34:35;62.95;;;39.10;;
23642;SDS011;11998;55.788;37.572;2022-08-26T04:35:37;62.78;;;39.00;;
23642;SDS011;11998;55.788;37.572;2022-08-26T04:36:38;53.67;;;38.30;;
23642;SDS011;11998;55.788;37.572;2022-08-26T04:37:39;56.95;;;36.85;;
23642;SDS011;11998;55.788;37.572;2022-08-26T04:38:40;52.72;;;33.85;;
23642;SDS011;11998;55.788;37.572;2022-08-26T04:39:41;57.67;;;36.67;;
23642;SDS011;11998;55.788;37.572;2022-08-26T04:40:42;52.92;;;34.65;;
23642;SDS011;11998;55.788;37.572;2022-08-26T04:41:46;58.15;;;32.55;;
23642;SDS011;11998;55.788;37.572;2022-08-26T04:42:49;56.03;;;36.00;;
23642;SDS011;11998;55.788;37.572;2022-08-26T04:43:50;54.13;;;34.83;;
23642;SDS011;11998;55.788;37.572;2022-08-26T04:44:51;53.97;;;35.25;;
23642;SDS011;11998;55.788;37.572;2022-08-26T04:45:51;56.22;;;37.22;;
23642;SDS011;11998;55.788;37.572;2022-08-26T04:46:52;61.40;;;38.55;;
23642;SDS011;11998;55.788;37.572;2022-08-26T04:47:54;52.58;;;36.92;;
23642;SDS011;11998;55.788;37.572;2022-08-26T04:48:55;58.45;;;34.30;;
23642;SDS011;11998;55.788;37.572;2022-08-26T04:49:56;59.25;;;36.63;;
23642;SDS011;11998;55.788;37.572;2022-08-26T04:50:57;57.63;;;35.25;;
23642;SDS011;11998;55.788;37.572;2022-08-26T04:51:58;54.47;;;37.42;;
23642;SDS011;11998;55.788;37.572;2022-08-26T04:52:59;61.75;;;37.88;;
23642;SDS011;11998;55.788;37.572;2022-08-26T04:54:00;53.17;;;34.35;;
23642;SDS011;11998;55.788;37.572;2022-08-26T04:55:01;58.33;;;36.60;;
23642;SDS011;11998;55.788;37.572;2022-08-26T04:56:01;54.53;;;37.60;;
23642;SDS011;11998;55.788;37.572;2022-08-26T04:57:02;60.42;;;40.95;;
23642;SDS011;11998;55.788;37.572;2022-08-26T04:58:03;58.20;;;39.42;;
23642;SDS011;11998;55.788;37.572;2022-08-26T04:59:06;63.78;;;40.72;;
23642;SDS011;11998;55.788;37.572;2022-08-26T05:00:08;56.90;;;39.78;;
23642;SDS011;11998;55.788;37.572;2022-08-26T05:01:11;47.45;;;38.00;;
23642;SDS011;11998;55.788;37.572;2022-08-26T05:02:12;63.25;;;40.83;;
23642;SDS011;11998;55.788;37.572;2022-08-26T05:03:12;68.22;;;41.70;;
23642;SDS011;11998;55.788;37.572;2022-08-26T05:04:13;58.20;;;39.65;;
23642;SDS011;11998;55.788;37.572;2022-08-26T05:05:15;58.85;;;39.63;;
23642;SDS011;11998;55.788;37.572;2022-08-26T05:06:15;61.30;;;39.30;;
23642;SDS011;11998;55.788;37.572;2022-08-26T05:07:16;56.72;;;37.95;;
23642;SDS011;11998;55.788;37.572;2022-08-26T05:08:17;61.15;;;38.17;;
23642;SDS011;11998;55.788;37.572;2022-08-26T05:09:19;57.65;;;38.22;;
23642;SDS011;11998;55.788;37.572;2022-08-26T05:10:20;64.18;;;39.15;;
23642;SDS011;11998;55.788;37.572;2022-08-26T05:11:20;59.72;;;40.20;;
23642;SDS011;11998;55.788;37.572;2022-08-26T05:12:21;52.53;;;36.95;;
23642;SDS011;11998;55.788;37.572;2022-08-26T05:13:26;57.80;;;39.83;;
23642;SDS011;11998;55.788;37.572;2022-08-26T05:14:26;62.03;;;39.05;;
23642;SDS011;11998;55.788;37.572;2022-08-26T05:15:27;56.53;;;39.05;;
23642;SDS011;11998;55.788;37.572;2022-08-26T05:16:28;53.25;;;35.70;;
23642;SDS011;11998;55.788;37.572;2022-08-26T05:17:29;51.35;;;33.10;;
23642;SDS011;11998;55.788;37.572;2022-08-26T05:18:31;55.45;;;36.58;;
23642;SDS011;11998;55.788;37.572;2022-08-26T05:19:33;54.45;;;37.30;;
23642;SDS011;11998;55.788;37.572;2022-08-26T05:20:40;52.80;;;33.50;;
23642;SDS011;11998;55.788;37.572;2022-08-26T05:21:41;49.80;;;32.17;;
23642;SDS011;11998;55.788;37.572;2022-08-26T05:22:43;48.97;;;32.67;;
23642;SDS011;11998;55.788;37.572;2022-08-26T05:23:43;54.30;;;36.42;;
23642;SDS011;11998;55.788;37.572;2022-08-26T05:24:45;58.97;;;37.67;;
23642;SDS011;11998;55.788;37.572;2022-08-26T05:25:46;47.15;;;35.20;;
23642;SDS011;11998;55.788;37.572;2022-08-26T05:26:47;56.38;;;35.42;;
23642;SDS011;11998;55.788;37.572;2022-08-26T05:27:48;51.30;;;33.78;;
23642;SDS011;11998;55.788;37.572;2022-08-26T05:28:49;55.25;;;32.20;;
23642;SDS011;11998;55.788;37.572;2022-08-26T05:29:54;49.53;;;32.75;;
23642;SDS011;11998;55.788;37.572;2022-08-26T05:30:56;44.45;;;30.88;;
23642;SDS011;11998;55.788;37.572;2022-08-26T05:31:56;52.80;;;30.65;;
23642;SDS011;11998;55.788;37.572;2022-08-26T05:32:57;48.03;;;30.52;;
23642;SDS011;11998;55.788;37.572;2022-08-26T05:33:58;54.95;;;31.40;;
23642;SDS011;11998;55.788;37.572;2022-08-26T05:35:00;46.83;;;29.80;;
23642;SDS011;11998;55.788;37.572;2022-08-26T05:36:05;54.10;;;28.45;;
23642;SDS011;11998;55.788;37.572;2022-08-26T05:37:09;49.63;;;29.60;;
23642;SDS011;11998;55.788;37.572;2022-08-26T05:38:10;45.60;;;28.13;;
23642;SDS011;11998;55.788;37.572;2022-08-26T05:39:14;53.00;;;28.15;;
23642;SDS011;11998;55.788;37.572;2022-08-26T05:40:15;50.13;;;27.00;;
23642;SDS011;11998;55.788;37.572;2022-08-26T05:41:19;49.13;;;27.38;;
23642;SDS011;11998;55.788;37.572;2022-08-26T05:42:24;54.10;;;27.70;;
23642;SDS011;11998;55.788;37.572;2022-08-26T05:43:24;51.30;;;28.17;;
23642;SDS011;11998;55.788;37.572;2022-08-26T05:44:25;43.63;;;26.98;;
23642;SDS011;11998;55.788;37.572;2022-08-26T05:45:26;43.42;;;27.15;;
23642;SDS011;11998;55.788;37.572;2022-08-26T05:46:27;48.80;;;27.60;;
23642;SDS011;11998;55.788;37.572;2022-08-26T05:47:28;44.15;;;27.13;;
23642;SDS011;11998;55.788;37.572;2022-08-26T05:48:28;51.63;;;26.83;;
23642;SDS011;11998;55.788;37.572;2022-08-26T05:49:29;50.92;;;27.30;;
23642;SDS011;11998;55.788;37.572;2022-08-26T05:50:29;45.65;;;26.45;;
23642;SDS011;11998;55.788;37.572;2022-08-26T05:51:30;50.38;;;25.48;;
23642;SDS011;11998;55.788;37.572;2022-08-26T05:52:34;40.72;;;24.17;;
23642;SDS011;11998;55.788;37.572;2022-08-26T05:53:34;40.92;;;24.00;;
23642;SDS011;11998;55.788;37.572;2022-08-26T05:54:37;49.38;;;25.00;;
23642;SDS011;11998;55.788;37.572;2022-08-26T05:55:46;47.80;;;25.80;;
23642;SDS011;11998;55.788;37.572;2022-08-26T05:56:51;46.55;;;23.95;;
23642;SDS011;11998;55.788;37.572;2022-08-26T05:57:52;40.92;;;25.38;;
23642;SDS011;11998;55.788;37.572;2022-08-26T05:58:53;48.58;;;24.95;;
23642;SDS011;11998;55.788;37.572;2022-08-26T05:59:55;44.78;;;24.35;;
23642;SDS011;11998;55.788;37.572;2022-08-26T06:01:01;43.88;;;23.38;;
23642;SDS011;11998;55.788;37.572;2022-08-26T06:02:02;51.75;;;25.42;;